CEB357 RPVK-RPVM
Flight info
| Callsign | CEB357 |
|---|---|
| Flight time | 0h 30m |
| Altitude | 15000 |
| Route | ROX3A ROX W6A PARAO PARAO1 |
| Aircraft | A20N/M-SDE2E3FGHIJ1RWXY/LB1 |
Departure
| Time | 2026-04-25 08:09 |
|---|---|
| Airport | Kalibo International Airport (RPVK) |
Arrival
| Time | 2026-04-25 08:40 |
|---|---|
| Airport | Mactan Cebu International Airport (RPVM) |
| Time | Latitude | Longitude | Altitude | Speed | Heading |
|---|---|---|---|---|---|
| 2026-04-25 07:47 | 11.68576 | 122.38144 | 41 ft | 0 kts | 347° |
| 2026-04-25 07:58 | 11.68562 | 122.38148 | 41 ft | 2 kts | 346° |
| 2026-04-25 07:58 | 11.68552 | 122.38149 | 41 ft | 2 kts | 2° |
| 2026-04-25 07:59 | 11.68537 | 122.38147 | 40 ft | 2 kts | 20° |
| 2026-04-25 07:59 | 11.68524 | 122.38139 | 40 ft | 2 kts | 40° |
| 2026-04-25 07:59 | 11.68518 | 122.38134 | 40 ft | 1 kts | 51° |
| 2026-04-25 07:59 | 11.68515 | 122.38130 | 40 ft | 0 kts | 50° |
| 2026-04-25 08:04 | 11.68516 | 122.38132 | 40 ft | 2 kts | 50° |
| 2026-04-25 08:04 | 11.68537 | 122.38155 | 40 ft | 9 kts | 47° |
| 2026-04-25 08:04 | 11.68535 | 122.38210 | 40 ft | 7 kts | 168° |
| 2026-04-25 08:04 | 11.68503 | 122.38192 | 40 ft | 9 kts | 230° |
| 2026-04-25 08:05 | 11.68431 | 122.38107 | 41 ft | 15 kts | 229° |
| 2026-04-25 08:05 | 11.68343 | 122.38005 | 40 ft | 22 kts | 228° |
| 2026-04-25 08:05 | 11.68273 | 122.37923 | 41 ft | 23 kts | 229° |
| 2026-04-25 08:05 | 11.68134 | 122.37762 | 43 ft | 22 kts | 229° |
| 2026-04-25 08:06 | 11.68066 | 122.37684 | 43 ft | 21 kts | 228° |
| 2026-04-25 08:06 | 11.67937 | 122.37532 | 46 ft | 20 kts | 228° |
| 2026-04-25 08:06 | 11.67839 | 122.37421 | 47 ft | 22 kts | 229° |
| 2026-04-25 08:06 | 11.67767 | 122.37336 | 47 ft | 24 kts | 227° |
| 2026-04-25 08:07 | 11.67648 | 122.37196 | 50 ft | 27 kts | 229° |
| 2026-04-25 08:07 | 11.67515 | 122.37043 | 51 ft | 30 kts | 229° |
| 2026-04-25 08:07 | 11.67373 | 122.36877 | 52 ft | 31 kts | 227° |
| 2026-04-25 08:07 | 11.67244 | 122.36725 | 54 ft | 5 kts | 247° |
| 2026-04-25 08:08 | 11.67227 | 122.36688 | 54 ft | 2 kts | 196° |
| 2026-04-25 08:08 | 11.67221 | 122.36704 | 54 ft | 4 kts | 54° |
| 2026-04-25 08:08 | 11.67242 | 122.36725 | 54 ft | 0 kts | 50° |
| 2026-04-25 08:08 | 11.67242 | 122.36726 | 54 ft | 0 kts | 50° |
| 2026-04-25 08:09 | 11.67248 | 122.36732 | 54 ft | 9 kts | 51° |
| 2026-04-25 08:09 | 11.67479 | 122.37004 | 51 ft | 87 kts | 51° |
| 2026-04-25 08:09 | 11.68023 | 122.37640 | 45 ft | 147 kts | 53° |
| 2026-04-25 08:09 | 11.68924 | 122.38707 | 807 ft | 147 kts | 55° |
| 2026-04-25 08:10 | 11.69163 | 122.39673 | 1410 ft | 147 kts | 107° |
| 2026-04-25 08:10 | 11.68486 | 122.40440 | 1993 ft | 155 kts | 140° |
| 2026-04-25 08:10 | 11.67897 | 122.40887 | 2276 ft | 165 kts | 132° |
| 2026-04-25 08:10 | 11.67319 | 122.41903 | 2730 ft | 175 kts | 104° |
| 2026-04-25 08:11 | 11.67028 | 122.43162 | 3226 ft | 191 kts | 99° |
| 2026-04-25 08:11 | 11.66760 | 122.44536 | 3714 ft | 208 kts | 99° |
| 2026-04-25 08:11 | 11.66453 | 122.46046 | 4138 ft | 231 kts | 100° |
| 2026-04-25 08:11 | 11.65969 | 122.48282 | 4941 ft | 254 kts | 101° |
| 2026-04-25 08:12 | 11.65709 | 122.49444 | 5422 ft | 260 kts | 101° |
| 2026-04-25 08:12 | 11.65294 | 122.51274 | 6138 ft | 272 kts | 102° |
| 2026-04-25 08:12 | 11.64851 | 122.53219 | 6662 ft | 290 kts | 102° |
| 2026-04-25 08:12 | 11.64216 | 122.55990 | 7309 ft | 315 kts | 102° |
| 2026-04-25 08:13 | 11.63874 | 122.57477 | 7655 ft | 327 kts | 102° |
| 2026-04-25 08:13 | 11.63352 | 122.59744 | 8352 ft | 335 kts | 102° |
| 2026-04-25 08:13 | 11.62626 | 122.62864 | 9343 ft | 343 kts | 103° |
| 2026-04-25 08:14 | 11.61696 | 122.66844 | 10536 ft | 351 kts | 103° |
| 2026-04-25 08:14 | 11.61132 | 122.69265 | 11231 ft | 356 kts | 103° |
| 2026-04-25 08:14 | 11.60359 | 122.72562 | 12120 ft | 362 kts | 105° |
| 2026-04-25 08:14 | 11.59446 | 122.74969 | 12752 ft | 366 kts | 118° |
| 2026-04-25 08:15 | 11.58002 | 122.77107 | 13389 ft | 370 kts | 131° |
| 2026-04-25 08:15 | 11.56801 | 122.78361 | 13815 ft | 372 kts | 136° |
| 2026-04-25 08:15 | 11.54915 | 122.80177 | 14383 ft | 377 kts | 136° |
| 2026-04-25 08:15 | 11.52319 | 122.82645 | 14794 ft | 391 kts | 136° |
| 2026-04-25 08:16 | 11.50987 | 122.83916 | 14834 ft | 403 kts | 136° |
| 2026-04-25 08:16 | 11.48859 | 122.85955 | 14843 ft | 422 kts | 136° |
| 2026-04-25 08:16 | 11.45959 | 122.88747 | 14842 ft | 435 kts | 136° |
| 2026-04-25 08:16 | 11.43751 | 122.90879 | 14845 ft | 437 kts | 136° |
| 2026-04-25 08:17 | 11.42299 | 122.92281 | 14847 ft | 437 kts | 136° |
| 2026-04-25 08:17 | 11.40069 | 122.94436 | 14845 ft | 437 kts | 136° |
| 2026-04-25 08:17 | 11.37129 | 122.97276 | 14844 ft | 436 kts | 136° |
| 2026-04-25 08:17 | 11.34938 | 122.99387 | 14842 ft | 436 kts | 136° |
| 2026-04-25 08:18 | 11.33462 | 123.00805 | 14845 ft | 437 kts | 136° |
| 2026-04-25 08:18 | 11.31246 | 123.02936 | 14843 ft | 437 kts | 136° |
| 2026-04-25 08:18 | 11.29012 | 123.05085 | 14846 ft | 437 kts | 136° |
| 2026-04-25 08:18 | 11.26804 | 123.07210 | 14847 ft | 437 kts | 136° |
| 2026-04-25 08:19 | 11.24602 | 123.09333 | 14843 ft | 437 kts | 136° |
| 2026-04-25 08:19 | 11.21672 | 123.12158 | 14840 ft | 437 kts | 136° |
| 2026-04-25 08:19 | 11.20181 | 123.13596 | 14842 ft | 437 kts | 136° |
| 2026-04-25 08:19 | 11.17979 | 123.15718 | 14838 ft | 437 kts | 136° |
| 2026-04-25 08:20 | 11.15023 | 123.18567 | 14836 ft | 437 kts | 136° |
| 2026-04-25 08:20 | 11.12808 | 123.20702 | 14835 ft | 437 kts | 136° |
| 2026-04-25 08:20 | 11.10610 | 123.22822 | 14837 ft | 437 kts | 136° |
| 2026-04-25 08:20 | 11.09143 | 123.24236 | 14838 ft | 437 kts | 136° |
| 2026-04-25 08:21 | 11.06943 | 123.26356 | 14832 ft | 436 kts | 136° |
| 2026-04-25 08:21 | 11.03989 | 123.29199 | 14829 ft | 436 kts | 136° |
| 2026-04-25 08:21 | 11.02530 | 123.30603 | 14835 ft | 436 kts | 136° |
| 2026-04-25 08:21 | 11.00316 | 123.32730 | 14834 ft | 436 kts | 136° |
| 2026-04-25 08:22 | 10.97376 | 123.35556 | 14832 ft | 436 kts | 136° |
| 2026-04-25 08:22 | 10.95888 | 123.36987 | 14838 ft | 436 kts | 136° |
| 2026-04-25 08:22 | 10.93678 | 123.39111 | 14840 ft | 436 kts | 136° |
| 2026-04-25 08:22 | 10.90723 | 123.41956 | 14847 ft | 437 kts | 136° |
| 2026-04-25 08:23 | 10.89256 | 123.43374 | 14843 ft | 437 kts | 136° |
| 2026-04-25 08:23 | 10.87075 | 123.45478 | 14846 ft | 436 kts | 136° |
| 2026-04-25 08:23 | 10.84136 | 123.48317 | 14846 ft | 436 kts | 136° |
| 2026-04-25 08:23 | 10.82668 | 123.49738 | 14848 ft | 436 kts | 135° |
| 2026-04-25 08:24 | 10.80463 | 123.51875 | 14842 ft | 436 kts | 135° |
| 2026-04-25 08:24 | 10.77521 | 123.54731 | 14839 ft | 435 kts | 135° |
| 2026-04-25 08:24 | 10.76074 | 123.56139 | 14765 ft | 434 kts | 135° |
| 2026-04-25 08:24 | 10.73920 | 123.58231 | 14415 ft | 420 kts | 135° |
| 2026-04-25 08:25 | 10.71857 | 123.60239 | 14162 ft | 404 kts | 135° |
| 2026-04-25 08:25 | 10.69841 | 123.62202 | 13854 ft | 391 kts | 135° |
| 2026-04-25 08:25 | 10.67897 | 123.64093 | 13483 ft | 386 kts | 136° |
| 2026-04-25 08:25 | 10.65345 | 123.66585 | 12862 ft | 382 kts | 135° |
| 2026-04-25 08:26 | 10.64067 | 123.67837 | 12522 ft | 379 kts | 135° |
| 2026-04-25 08:26 | 10.62158 | 123.69703 | 11933 ft | 378 kts | 135° |
| 2026-04-25 08:26 | 10.60282 | 123.71526 | 11357 ft | 375 kts | 135° |
| 2026-04-25 08:26 | 10.57781 | 123.73953 | 10818 ft | 356 kts | 135° |
| 2026-04-25 08:27 | 10.56605 | 123.75038 | 10682 ft | 338 kts | 141° |
| 2026-04-25 08:27 | 10.54560 | 123.76038 | 10489 ft | 316 kts | 167° |
| 2026-04-25 08:27 | 10.52436 | 123.76096 | 10313 ft | 298 kts | 188° |
| 2026-04-25 08:27 | 10.49935 | 123.75032 | 10154 ft | 289 kts | 211° |
| 2026-04-25 08:28 | 10.48292 | 123.73890 | 10062 ft | 286 kts | 213° |
| 2026-04-25 08:28 | 10.47189 | 123.73132 | 9998 ft | 284 kts | 212° |
| 2026-04-25 08:28 | 10.45489 | 123.72064 | 9705 ft | 285 kts | 207° |
| 2026-04-25 08:28 | 10.43719 | 123.71164 | 9360 ft | 285 kts | 201° |
| 2026-04-25 08:29 | 10.41898 | 123.70384 | 9030 ft | 284 kts | 199° |
| 2026-04-25 08:29 | 10.40042 | 123.69725 | 8705 ft | 282 kts | 194° |
| 2026-04-25 08:29 | 10.37492 | 123.69079 | 8277 ft | 280 kts | 189° |
| 2026-04-25 08:29 | 10.36216 | 123.68818 | 8063 ft | 279 kts | 186° |
| 2026-04-25 08:30 | 10.34306 | 123.68574 | 7748 ft | 276 kts | 181° |
| 2026-04-25 08:30 | 10.31738 | 123.68471 | 7337 ft | 274 kts | 178° |
| 2026-04-25 08:30 | 10.30463 | 123.68443 | 7135 ft | 273 kts | 177° |
| 2026-04-25 08:30 | 10.28558 | 123.68487 | 6829 ft | 271 kts | 172° |
| 2026-04-25 08:31 | 10.26697 | 123.68690 | 6529 ft | 268 kts | 167° |
| 2026-04-25 08:31 | 10.24255 | 123.69186 | 6120 ft | 265 kts | 162° |
| 2026-04-25 08:31 | 10.23072 | 123.69504 | 5923 ft | 263 kts | 160° |
| 2026-04-25 08:31 | 10.21334 | 123.70070 | 5638 ft | 261 kts | 156° |
| 2026-04-25 08:32 | 10.19643 | 123.70740 | 5334 ft | 259 kts | 153° |
| 2026-04-25 08:32 | 10.17468 | 123.71786 | 4930 ft | 256 kts | 148° |
| 2026-04-25 08:32 | 10.15926 | 123.72664 | 4636 ft | 254 kts | 145° |
| 2026-04-25 08:32 | 10.14437 | 123.73633 | 4344 ft | 252 kts | 142° |
| 2026-04-25 08:33 | 10.13486 | 123.74321 | 4151 ft | 250 kts | 139° |
| 2026-04-25 08:33 | 10.12314 | 123.75578 | 3817 ft | 243 kts | 115° |
| 2026-04-25 08:33 | 10.11878 | 123.77193 | 3513 ft | 237 kts | 89° |
| 2026-04-25 08:33 | 10.12206 | 123.78808 | 3208 ft | 234 kts | 64° |
| 2026-04-25 08:34 | 10.13180 | 123.80102 | 2996 ft | 229 kts | 45° |
| 2026-04-25 08:34 | 10.14672 | 123.81503 | 2965 ft | 210 kts | 45° |
| 2026-04-25 08:34 | 10.15734 | 123.82513 | 2964 ft | 206 kts | 47° |
| 2026-04-25 08:34 | 10.16396 | 123.83193 | 2956 ft | 201 kts | 47° |
| 2026-04-25 08:35 | 10.17345 | 123.84180 | 2943 ft | 188 kts | 48° |
| 2026-04-25 08:35 | 10.18239 | 123.85113 | 2867 ft | 177 kts | 48° |
| 2026-04-25 08:35 | 10.19062 | 123.85973 | 2710 ft | 164 kts | 48° |
| 2026-04-25 08:35 | 10.19835 | 123.86781 | 2478 ft | 152 kts | 48° |
| 2026-04-25 08:36 | 10.20541 | 123.87517 | 2389 ft | 138 kts | 49° |
| 2026-04-25 08:36 | 10.21213 | 123.88220 | 2360 ft | 138 kts | 49° |
| 2026-04-25 08:36 | 10.21873 | 123.88911 | 2162 ft | 136 kts | 49° |
| 2026-04-25 08:36 | 10.22758 | 123.89838 | 1922 ft | 136 kts | 49° |
| 2026-04-25 08:37 | 10.23415 | 123.90524 | 1745 ft | 135 kts | 49° |
| 2026-04-25 08:37 | 10.23851 | 123.90986 | 1625 ft | 135 kts | 49° |
| 2026-04-25 08:37 | 10.24501 | 123.91682 | 1447 ft | 135 kts | 49° |
| 2026-04-25 08:37 | 10.25380 | 123.92580 | 1212 ft | 134 kts | 47° |
| 2026-04-25 08:38 | 10.25828 | 123.93034 | 1110 ft | 134 kts | 46° |
| 2026-04-25 08:38 | 10.26502 | 123.93687 | 940 ft | 134 kts | 45° |
| 2026-04-25 08:38 | 10.27173 | 123.94337 | 765 ft | 133 kts | 46° |
| 2026-04-25 08:38 | 10.27833 | 123.95008 | 579 ft | 133 kts | 46° |
| 2026-04-25 08:39 | 10.28701 | 123.95889 | 342 ft | 133 kts | 45° |
| 2026-04-25 08:39 | 10.29149 | 123.96326 | 223 ft | 133 kts | 45° |
| 2026-04-25 08:39 | 10.29810 | 123.96993 | 51 ft | 132 kts | 45° |
| 2026-04-25 08:39 | 10.30419 | 123.97604 | 29 ft | 105 kts | 45° |
| 2026-04-25 08:40 | 10.30819 | 123.98009 | 34 ft | 56 kts | 45° |
| 2026-04-25 08:40 | 10.30994 | 123.98179 | 34 ft | 24 kts | 41° |
| 2026-04-25 08:40 | 10.31125 | 123.98285 | 32 ft | 23 kts | 31° |
| 2026-04-25 08:40 | 10.31275 | 123.98344 | 34 ft | 13 kts | 17° |
| 2026-04-25 08:41 | 10.31333 | 123.98352 | 34 ft | 12 kts | 355° |
| 2026-04-25 08:41 | 10.31405 | 123.98307 | 36 ft | 11 kts | 315° |
| 2026-04-25 08:41 | 10.31460 | 123.98251 | 38 ft | 10 kts | 316° |
| 2026-04-25 08:41 | 10.31508 | 123.98202 | 40 ft | 8 kts | 315° |
| 2026-04-25 08:42 | 10.31545 | 123.98166 | 41 ft | 6 kts | 314° |
| 2026-04-25 08:42 | 10.31562 | 123.98133 | 42 ft | 4 kts | 281° |
| 2026-04-25 08:42 | 10.31552 | 123.98096 | 42 ft | 4 kts | 236° |
| 2026-04-25 08:42 | 10.31534 | 123.98075 | 43 ft | 8 kts | 227° |
| 2026-04-25 08:43 | 10.31500 | 123.98017 | 44 ft | 5 kts | 298° |
| 2026-04-25 08:43 | 10.31520 | 123.98004 | 44 ft | 5 kts | 327° |
| 2026-04-25 08:43 | 10.31545 | 123.97983 | 44 ft | 4 kts | 316° |
| 2026-04-25 08:43 | 10.31550 | 123.97977 | 44 ft | 0 kts | 315° |